Time,TemperatureF,DewpointF,PressureIn,WindDirection,WindDirectionDegrees,WindSpeedMPH,WindSpeedGustMPH,Humidity,HourlyPrecipIn,Conditions,Clouds,dailyrainin,SoftwareType,DateUTC
2013-02-19 00:02:00,-36.2,-50.1,29.78,WSW,255,0.0,0.0,44,0.00,,,0.00,Weather View 32 v70,2013-02-19 09:02:00,
2013-02-19 00:07:00,-36.2,-50.1,29.78,WSW,255,0.0,0.0,44,0.00,,,0.00,Weather View 32 v70,2013-02-19 09:07:00,
2013-02-19 00:12:00,-36.2,-50.1,29.78,WSW,255,0.0,0.0,44,0.00,,,0.00,Weather View 32 v70,2013-02-19 09:12:00,
2013-02-19 00:17:00,-36.3,-50.2,29.77,WSW,255,0.0,0.0,44,0.00,,,0.00,Weather View 32 v70,2013-02-19 09:17:00,
2013-02-19 00:22:00,-36.5,-50.3,29.78,WSW,255,0.0,0.0,44,0.00,,,0.00,Weather View 32 v70,2013-02-19 09:22:00,
2013-02-19 00:27:00,-36.4,-50.3,29.78,WSW,255,0.0,0.0,44,0.00,,,0.00,Weather View 32 v70,2013-02-19 09:27:00,
2013-02-19 00:30:00,-36.4,-50.3,29.78,WSW,255,0.0,0.0,44,0.00,,,0.00,Weather View 32 v70,2013-02-19 09:30:00,
2013-02-19 00:32:00,-36.4,-50.3,29.77,WSW,255,0.0,0.0,44,0.00,,,0.00,Weather View 32 v70,2013-02-19 09:32:00,
2013-02-19 00:38:00,-36.5,-50.3,29.77,WSW,255,0.0,0.0,44,0.00,,,0.00,Weather View 32 v70,2013-02-19 09:38:00,
2013-02-19 00:42:00,-36.6,-50.4,29.77,WSW,255,0.0,0.0,44,0.00,,,0.00,Weather View 32 v70,2013-02-19 09:42:00,
2013-02-19 00:47:00,-36.7,-50.9,29.77,WSW,255,0.0,0.0,43,0.00,,,0.00,Weather View 32 v70,2013-02-19 09:47:00,
2013-02-19 00:52:00,-36.8,-51.0,29.77,WSW,255,0.0,0.0,43,0.00,,,0.00,Weather View 32 v70,2013-02-19 09:52:00,
2013-02-19 00:57:00,-37.0,-51.2,29.77,WSW,255,0.0,0.0,43,0.00,,,0.00,Weather View 32 v70,2013-02-19 09:57:00,
2013-02-19 01:02:00,-37.1,-51.3,29.77,WSW,255,0.0,0.0,43,0.00,,,0.00,Weather View 32 v70,2013-02-19 10:02:00,
2013-02-19 01:07:00,-37.3,-51.5,29.77,WSW,255,0.0,0.0,43,0.00,,,0.00,Weather View 32 v70,2013-02-19 10:07:00,
2013-02-19 01:12:00,-37.4,-51.5,29.77,WSW,255,0.0,0.0,43,0.00,,,0.00,Weather View 32 v70,2013-02-19 10:12:00,
2013-02-19 01:17:00,-37.5,-51.6,29.77,WSW,255,0.0,0.0,43,0.00,,,0.00,Weather View 32 v70,2013-02-19 10:17:00,
2013-02-19 01:22:00,-37.6,-51.7,29.77,WSW,255,0.0,0.0,43,0.00,,,0.00,Weather View 32 v70,2013-02-19 10:22:00,
2013-02-19 01:27:00,-37.7,-52.2,29.77,WSW,255,0.0,0.0,42,0.00,,,0.00,Weather View 32 v70,2013-02-19 10:27:00,
2013-02-19 01:30:00,-37.7,-52.2,29.77,WSW,255,0.0,0.0,42,0.00,,,0.00,Weather View 32 v70,2013-02-19 10:30:00,
2013-02-19 01:33:00,-37.8,-52.3,29.77,WSW,255,0.0,0.0,42,0.00,,,0.00,Weather View 32 v70,2013-02-19 10:33:00,
2013-02-19 01:37:00,-37.8,-51.9,29.77,WSW,255,0.0,0.0,43,0.00,,,0.00,Weather View 32 v70,2013-02-19 10:37:00,
2013-02-19 01:42:00,-37.9,-52.4,29.76,WSW,255,0.0,0.0,42,0.00,,,0.00,Weather View 32 v70,2013-02-19 10:42:00,
2013-02-19 01:47:00,-38.1,-52.6,29.76,WSW,255,0.0,0.0,42,0.00,,,0.00,Weather View 32 v70,2013-02-19 10:47:00,
2013-02-19 01:52:00,-38.2,-52.7,29.77,WSW,255,0.0,0.0,42,0.00,,,0.00,Weather View 32 v70,2013-02-19 10:52:00,
2013-02-19 01:57:00,-38.2,-52.7,29.76,WSW,255,0.0,0.0,42,0.00,,,0.00,Weather View 32 v70,2013-02-19 10:57:00,
2013-02-19 02:02:00,-38.3,-52.8,29.77,WSW,255,0.0,0.0,42,0.00,,,0.00,Weather View 32 v70,2013-02-19 11:02:00,
2013-02-19 02:07:00,-38.2,-52.7,29.76,WSW,255,0.0,0.0,42,0.00,,,0.00,Weather View 32 v70,2013-02-19 11:07:00,
2013-02-19 02:12:00,-38.2,-52.7,29.77,WSW,255,0.0,0.0,42,0.00,,,0.00,Weather View 32 v70,2013-02-19 11:12:00,
2013-02-19 02:17:00,-38.1,-52.6,29.77,WSW,255,0.0,0.0,42,0.00,,,0.00,Weather View 32 v70,2013-02-19 11:17:00,
2013-02-19 02:22:00,-38.0,-52.5,29.77,WSW,255,0.0,0.0,42,0.00,,,0.00,Weather View 32 v70,2013-02-19 11:22:00,
2013-02-19 02:27:00,-38.0,-52.5,29.77,WSW,255,0.0,0.0,42,0.00,,,0.00,Weather View 32 v70,2013-02-19 11:27:00,
2013-02-19 02:30:00,-38.0,-52.5,29.77,WSW,255,0.0,0.0,42,0.00,,,0.00,Weather View 32 v70,2013-02-19 11:30:00,
2013-02-19 02:32:00,-38.0,-52.5,29.77,WSW,255,0.0,0.0,42,0.00,,,0.00,Weather View 32 v70,2013-02-19 11:32:00,
2013-02-19 02:37:00,-38.2,-52.7,29.77,WSW,255,0.0,0.0,42,0.00,,,0.00,Weather View 32 v70,2013-02-19 11:37:00,
2013-02-19 02:42:00,-38.1,-52.6,29.77,WSW,255,0.0,0.0,42,0.00,,,0.00,Weather View 32 v70,2013-02-19 11:42:00,
2013-02-19 02:47:00,-38.3,-52.8,29.77,WSW,255,0.0,0.0,42,0.00,,,0.00,Weather View 32 v70,2013-02-19 11:47:00,
2013-02-19 02:52:00,-38.6,-53.4,29.77,WSW,255,0.0,0.0,41,0.00,,,0.00,Weather View 32 v70,2013-02-19 11:52:00,
2013-02-19 02:57:00,-38.6,-53.4,29.76,WSW,255,0.0,0.0,41,0.00,,,0.00,Weather View 32 v70,2013-02-19 11:57:00,
2013-02-19 03:02:00,-38.6,-53.4,29.76,WSW,255,0.0,0.0,41,0.00,,,0.00,Weather View 32 v70,2013-02-19 12:02:00,
2013-02-19 03:07:00,-38.8,-53.6,29.76,WSW,255,0.0,0.0,41,0.00,,,0.00,Weather View 32 v70,2013-02-19 12:07:00,
2013-02-19 03:12:00,-39.1,-53.9,29.76,WSW,255,0.0,0.0,41,0.00,,,0.00,Weather View 32 v70,2013-02-19 12:12:00,
2013-02-19 03:17:00,-39.2,-54.0,29.76,WSW,255,0.0,0.0,41,0.00,,,0.00,Weather View 32 v70,2013-02-19 12:17:00,
2013-02-19 03:22:00,-39.2,-54.0,29.76,WSW,255,0.0,0.0,41,0.00,,,0.00,Weather View 32 v70,2013-02-19 12:22:00,
2013-02-19 03:27:00,-39.1,-53.9,29.76,WSW,255,0.0,0.0,41,0.00,,,0.00,Weather View 32 v70,2013-02-19 12:27:00,
2013-02-19 03:30:00,-39.1,-53.9,29.76,WSW,255,0.0,0.0,41,0.00,,,0.00,Weather View 32 v70,2013-02-19 12:30:00,
2013-02-19 03:32:00,-39.0,-53.4,29.76,WSW,255,0.0,0.0,42,0.00,,,0.00,Weather View 32 v70,2013-02-19 12:32:00,
2013-02-19 03:37:00,-39.0,-53.8,29.76,WSW,255,0.0,0.0,41,0.00,,,0.00,Weather View 32 v70,2013-02-19 12:37:00,
2013-02-19 03:42:00,-39.1,-53.9,29.76,WSW,255,0.0,0.0,41,0.00,,,0.00,Weather View 32 v70,2013-02-19 12:42:00,
2013-02-19 03:47:00,-39.5,-54.2,29.76,WSW,255,0.0,0.0,41,0.00,,,0.00,Weather View 32 v70,2013-02-19 12:47:00,
2013-02-19 03:52:00,-39.6,-54.3,29.76,WSW,255,0.0,0.0,41,0.00,,,0.00,Weather View 32 v70,2013-02-19 12:52:00,
2013-02-19 03:57:00,-39.6,-54.3,29.76,WSW,255,0.0,0.0,41,0.00,,,0.00,Weather View 32 v70,2013-02-19 12:57:00,
2013-02-19 04:02:00,-39.6,-54.3,29.76,WSW,255,0.0,0.0,41,0.00,,,0.00,Weather View 32 v70,2013-02-19 13:02:00,
2013-02-19 04:07:00,-39.7,-54.4,29.76,WSW,255,0.0,0.0,41,0.00,,,0.00,Weather View 32 v70,2013-02-19 13:07:00,
2013-02-19 04:12:00,-39.7,-54.4,29.75,WSW,255,0.0,0.0,41,0.00,,,0.00,Weather View 32 v70,2013-02-19 13:12:00,
2013-02-19 04:17:00,-39.9,-55.0,29.75,WSW,255,0.0,0.0,40,0.00,,,0.00,Weather View 32 v70,2013-02-19 13:17:00,
2013-02-19 04:22:00,-40.0,-55.1,29.74,WSW,255,0.0,0.0,40,0.00,,,0.00,Weather View 32 v70,2013-02-19 13:22:00,
2013-02-19 04:27:00,-40.1,-55.2,29.74,WSW,255,0.0,0.0,40,0.00,,,0.00,Weather View 32 v70,2013-02-19 13:27:00,
2013-02-19 04:32:00,-40.0,-54.7,29.74,WSW,255,0.0,0.0,41,0.00,,,0.00,Weather View 32 v70,2013-02-19 13:32:00,
2013-02-19 04:37:00,-40.1,-55.2,29.74,WSW,255,0.0,0.0,41,0.00,,,0.00,Weather View 32 v70,2013-02-19 13:37:00,
2013-02-19 04:42:00,-40.2,-55.3,29.74,WSW,255,0.0,0.0,40,0.00,,,0.00,Weather View 32 v70,2013-02-19 13:42:00,
2013-02-19 04:47:00,-40.5,-55.6,29.73,WSW,255,0.0,0.0,40,0.00,,,0.00,Weather View 32 v70,2013-02-19 13:47:00,
2013-02-19 04:52:00,-40.7,-55.7,29.73,WSW,255,0.0,0.0,40,0.00,,,0.00,Weather View 32 v70,2013-02-19 13:52:00,
2013-02-19 04:57:00,-40.7,-55.7,29.73,WSW,255,0.0,0.0,40,0.00,,,0.00,Weather View 32 v70,2013-02-19 13:57:00,
2013-02-19 05:02:00,-40.7,-55.7,29.73,WSW,255,0.0,0.0,40,0.00,,,0.00,Weather View 32 v70,2013-02-19 14:02:00,
2013-02-19 05:07:00,-40.6,-55.6,29.73,WSW,255,0.0,0.0,40,0.00,,,0.00,Weather View 32 v70,2013-02-19 14:07:00,
2013-02-19 05:12:00,-40.7,-55.7,29.72,WSW,255,0.0,0.0,40,0.00,,,0.00,Weather View 32 v70,2013-02-19 14:12:00,
2013-02-19 05:17:00,-40.7,-55.7,29.73,WSW,255,0.0,0.0,40,0.00,,,0.00,Weather View 32 v70,2013-02-19 14:17:00,
2013-02-19 05:22:00,-40.9,-55.9,29.72,WSW,255,0.0,0.0,40,0.00,,,0.00,Weather View 32 v70,2013-02-19 14:22:00,
2013-02-19 05:27:00,-41.0,-56.0,29.72,WSW,255,0.0,0.0,40,0.00,,,0.00,Weather View 32 v70,2013-02-19 14:27:00,
2013-02-19 05:32:00,-40.9,-55.9,29.72,WSW,255,0.0,0.0,40,0.00,,,0.00,Weather View 32 v70,2013-02-19 14:32:00,
2013-02-19 05:37:00,-41.0,-56.0,29.71,WSW,255,0.0,0.0,40,0.00,,,0.00,Weather View 32 v70,2013-02-19 14:37:00,
2013-02-19 05:42:00,-41.2,-56.2,29.71,WSW,255,0.0,0.0,40,0.00,,,0.00,Weather View 32 v70,2013-02-19 14:42:00,
2013-02-19 05:47:00,-41.2,-56.2,29.71,WSW,255,0.0,0.0,40,0.00,,,0.00,Weather View 32 v70,2013-02-19 14:47:00,
2013-02-19 05:52:00,-41.3,-56.3,29.71,WSW,255,0.0,0.0,40,0.00,,,0.00,Weather View 32 v70,2013-02-19 14:52:00,
2013-02-19 05:57:00,-41.3,-56.3,29.71,WSW,255,0.0,0.0,40,0.00,,,0.00,Weather View 32 v70,2013-02-19 14:57:00,
2013-02-19 06:02:00,-41.3,-56.3,29.70,WSW,255,0.0,0.0,40,0.00,,,0.00,Weather View 32 v70,2013-02-19 15:02:00,
2013-02-19 06:07:00,-41.3,-56.3,29.71,WSW,255,0.0,0.0,40,0.00,,,0.00,Weather View 32 v70,2013-02-19 15:07:00,
2013-02-19 06:12:00,-41.1,-56.1,29.70,WSW,255,0.0,0.0,40,0.00,,,0.00,Weather View 32 v70,2013-02-19 15:12:00,
2013-02-19 06:17:00,-41.1,-56.1,29.70,WSW,255,0.0,0.0,40,0.00,,,0.00,Weather View 32 v70,2013-02-19 15:17:00,
2013-02-19 06:22:00,-41.1,-56.1,29.69,WSW,255,0.0,0.0,40,0.00,,,0.00,Weather View 32 v70,2013-02-19 15:22:00,
2013-02-19 06:27:00,-41.4,-56.4,29.69,WSW,255,0.0,0.0,40,0.00,,,0.00,Weather View 32 v70,2013-02-19 15:27:00,
2013-02-19 06:32:00,-41.4,-56.8,29.69,WSW,255,0.0,0.0,39,0.00,,,0.00,Weather View 32 v70,2013-02-19 15:32:00,
2013-02-19 06:37:00,-41.3,-56.3,29.69,WSW,255,0.0,0.0,40,0.00,,,0.00,Weather View 32 v70,2013-02-19 15:37:00,
2013-02-19 06:42:00,-41.4,-56.8,29.69,WSW,255,0.0,0.0,39,0.00,,,0.00,Weather View 32 v70,2013-02-19 15:42:00,
2013-02-19 06:47:00,-41.5,-56.9,29.69,WSW,255,0.0,0.0,39,0.00,,,0.00,Weather View 32 v70,2013-02-19 15:47:00,
2013-02-19 06:52:00,-41.5,-56.9,29.69,WSW,255,0.0,0.0,39,0.00,,,0.00,Weather View 32 v70,2013-02-19 15:52:00,
2013-02-19 06:57:00,-41.4,-56.8,29.69,WSW,255,0.0,0.0,39,0.00,,,0.00,Weather View 32 v70,2013-02-19 15:57:00,
2013-02-19 07:02:00,-41.3,-56.3,29.68,WSW,255,0.0,0.0,40,0.00,,,0.00,Weather View 32 v70,2013-02-19 16:02:00,
2013-02-19 07:07:00,-41.3,-56.3,29.68,WSW,255,0.0,0.0,40,0.00,,,0.00,Weather View 32 v70,2013-02-19 16:07:00,
2013-02-19 07:12:00,-41.2,-56.2,29.68,WSW,255,0.0,0.0,40,0.00,,,0.00,Weather View 32 v70,2013-02-19 16:12:00,
2013-02-19 07:17:00,-41.1,-56.1,29.67,WSW,255,0.0,0.0,40,0.00,,,0.00,Weather View 32 v70,2013-02-19 16:17:00,
2013-02-19 07:22:00,-41.0,-56.0,29.67,WSW,255,0.0,0.0,40,0.00,,,0.00,Weather View 32 v70,2013-02-19 16:22:00,
2013-02-19 07:27:00,-41.2,-56.2,29.68,WSW,255,0.0,0.0,40,0.00,,,0.00,Weather View 32 v70,2013-02-19 16:27:00,
2013-02-19 07:32:00,-41.3,-56.7,29.68,WSW,255,0.0,0.0,39,0.00,,,0.00,Weather View 32 v70,2013-02-19 16:32:00,
2013-02-19 07:37:00,-41.1,-56.1,29.67,WSW,255,0.0,0.0,40,0.00,,,0.00,Weather View 32 v70,2013-02-19 16:37:00,
2013-02-19 07:42:00,-40.9,-55.9,29.67,WSW,255,0.0,0.0,40,0.00,,,0.00,Weather View 32 v70,2013-02-19 16:42:00,
2013-02-19 07:47:00,-41.0,-56.0,29.68,WSW,255,0.0,0.0,40,0.00,,,0.00,Weather View 32 v70,2013-02-19 16:47:00,
2013-02-19 07:52:00,-40.9,-55.9,29.68,WSW,255,0.0,0.0,40,0.00,,,0.00,Weather View 32 v70,2013-02-19 16:52:00,
2013-02-19 07:57:00,-40.9,-55.9,29.67,WSW,255,0.0,0.0,40,0.00,,,0.00,Weather View 32 v70,2013-02-19 16:57:00,
2013-02-19 08:02:00,-40.9,-55.9,29.67,WSW,255,0.0,0.0,40,0.00,,,0.00,Weather View 32 v70,2013-02-19 17:02:00,
2013-02-19 08:07:00,-40.8,-55.8,29.67,WSW,255,0.0,0.0,40,0.00,,,0.00,Weather View 32 v70,2013-02-19 17:07:00,
2013-02-19 08:12:00,-40.8,-55.8,29.66,WSW,255,0.0,0.0,40,0.00,,,0.00,Weather View 32 v70,2013-02-19 17:12:00,
2013-02-19 08:17:00,-41.0,-56.0,29.66,WSW,255,0.0,0.0,40,0.00,,,0.00,Weather View 32 v70,2013-02-19 17:17:00,
2013-02-19 08:22:00,-40.9,-55.9,29.65,WSW,255,0.0,0.0,40,0.00,,,0.00,Weather View 32 v70,2013-02-19 17:22:00,
2013-02-19 08:27:00,-41.0,-56.0,29.65,WSW,255,0.0,0.0,40,0.00,,,0.00,Weather View 32 v70,2013-02-19 17:27:00,
2013-02-19 08:32:00,-40.7,-55.7,29.65,WSW,255,0.0,0.0,40,0.00,,,0.00,Weather View 32 v70,2013-02-19 17:32:00,
2013-02-19 08:37:00,-40.8,-55.8,29.64,WSW,255,0.0,0.0,40,0.00,,,0.00,Weather View 32 v70,2013-02-19 17:37:00,
2013-02-19 08:42:00,-40.8,-56.2,29.64,WSW,255,0.0,0.0,39,0.00,,,0.00,Weather View 32 v70,2013-02-19 17:42:00,
2013-02-19 08:47:00,-40.9,-55.9,29.64,WSW,255,0.0,0.0,40,0.00,,,0.00,Weather View 32 v70,2013-02-19 17:47:00,
2013-02-19 08:52:00,-40.9,-55.9,29.64,WSW,255,0.0,0.0,40,0.00,,,0.00,Weather View 32 v70,2013-02-19 17:52:00,
2013-02-19 08:57:00,-40.9,-55.9,29.63,WSW,255,0.0,0.0,40,0.00,,,0.00,Weather View 32 v70,2013-02-19 17:57:00,
2013-02-19 09:02:00,-40.8,-55.8,29.63,WSW,255,0.0,0.0,40,0.00,,,0.00,Weather View 32 v70,2013-02-19 18:02:00,
2013-02-19 09:07:00,-40.6,-55.6,29.62,WSW,255,0.0,0.0,40,0.00,,,0.00,Weather View 32 v70,2013-02-19 18:07:00,
2013-02-19 09:12:00,-40.3,-55.4,29.62,WSW,255,0.0,0.0,40,0.00,,,0.00,Weather View 32 v70,2013-02-19 18:12:00,
2013-02-19 09:17:00,-39.9,-55.0,29.62,WSW,255,0.0,0.0,40,0.00,,,0.00,Weather View 32 v70,2013-02-19 18:17:00,
2013-02-19 09:22:00,-39.7,-54.4,29.62,WSW,255,0.0,0.0,41,0.00,,,0.00,Weather View 32 v70,2013-02-19 18:22:00,
2013-02-19 09:27:00,-39.4,-54.2,29.61,WSW,255,0.0,0.0,41,0.00,,,0.00,Weather View 32 v70,2013-02-19 18:27:00,
2013-02-19 09:32:00,-38.8,-53.6,29.61,WSW,255,0.0,0.0,41,0.00,,,0.00,Weather View 32 v70,2013-02-19 18:32:00,
2013-02-19 09:37:00,-38.7,-53.5,29.61,WSW,255,0.0,0.0,41,0.00,,,0.00,Weather View 32 v70,2013-02-19 18:37:00,
2013-02-19 09:42:00,-38.2,-53.0,29.61,WSW,255,0.0,0.0,41,0.00,,,0.00,Weather View 32 v70,2013-02-19 18:42:00,
2013-02-19 09:47:00,-37.7,-52.2,29.61,WSW,255,0.0,0.0,42,0.00,,,0.00,Weather View 32 v70,2013-02-19 18:47:00,
2013-02-19 09:52:00,-37.1,-51.3,29.60,WSW,255,0.0,0.0,43,0.00,,,0.00,Weather View 32 v70,2013-02-19 18:52:00,
2013-02-19 09:57:00,-36.5,-50.7,29.60,WSW,255,0.0,0.0,43,0.00,,,0.00,Weather View 32 v70,2013-02-19 18:57:00,
2013-02-19 10:02:00,-36.0,-50.3,29.60,WSW,255,0.0,0.0,43,0.00,,,0.00,Weather View 32 v70,2013-02-19 19:02:00,
2013-02-19 10:07:00,-35.3,-49.2,29.59,WSW,255,0.0,0.0,44,0.00,,,0.00,Weather View 32 v70,2013-02-19 19:07:00,
2013-02-19 10:12:00,-34.5,-48.1,29.59,WSW,255,0.0,0.0,45,0.00,,,0.00,Weather View 32 v70,2013-02-19 19:12:00,
2013-02-19 10:17:00,-34.0,-47.7,29.59,WSW,255,0.0,0.0,45,0.00,,,0.00,Weather View 32 v70,2013-02-19 19:17:00,
2013-02-19 10:22:00,-33.3,-46.7,29.58,WSW,255,0.0,0.0,46,0.00,,,0.00,Weather View 32 v70,2013-02-19 19:22:00,
2013-02-19 10:27:00,-32.5,-45.6,29.58,WSW,255,0.0,0.0,47,0.00,,,0.00,Weather View 32 v70,2013-02-19 19:27:00,
2013-02-19 10:32:00,-31.5,-44.6,29.57,WSW,255,0.0,0.0,47,0.00,,,0.00,Weather View 32 v70,2013-02-19 19:32:00,
2013-02-19 10:37:00,-30.2,-43.1,29.57,WSW,255,0.0,0.0,48,0.00,,,0.00,Weather View 32 v70,2013-02-19 19:37:00,
2013-02-19 10:42:00,-28.9,-41.2,29.57,WSW,255,0.0,0.0,50,0.00,,,0.00,Weather View 32 v70,2013-02-19 19:42:00,
2013-02-19 10:47:00,-27.7,-40.0,29.57,WSW,255,0.0,0.0,50,0.00,,,0.00,Weather View 32 v70,2013-02-19 19:47:00,
2013-02-19 10:52:00,-26.5,-38.6,29.57,WSW,255,0.0,0.0,51,0.00,,,0.00,Weather View 32 v70,2013-02-19 19:52:00,
2013-02-19 10:57:00,-25.7,-37.8,29.56,WSW,255,0.0,0.0,51,0.00,,,0.00,Weather View 32 v70,2013-02-19 19:57:00,
2013-02-19 11:02:00,-24.7,-36.5,29.56,WSW,255,0.0,0.0,52,0.00,,,0.00,Weather View 32 v70,2013-02-19 20:02:00,
2013-02-19 11:07:00,-23.4,-35.0,29.56,WSW,255,0.0,1.0,53,0.00,,,0.00,Weather View 32 v70,2013-02-19 20:07:00,
2013-02-19 11:12:00,-22.1,-33.4,29.56,WSW,255,0.0,1.0,54,0.00,,,0.00,Weather View 32 v70,2013-02-19 20:12:00,
2013-02-19 11:17:00,-20.7,-31.5,29.55,WSW,255,0.0,1.0,56,0.00,,,0.00,Weather View 32 v70,2013-02-19 20:17:00,
2013-02-19 11:22:00,-19.7,-30.5,29.55,WSW,255,0.0,1.0,56,0.00,,,0.00,Weather View 32 v70,2013-02-19 20:22:00,
2013-02-19 11:27:00,-17.7,-28.0,29.55,NE,45,0.0,4.0,58,0.00,,,0.00,Weather View 32 v70,2013-02-19 20:27:00,
2013-02-19 11:32:00,-14.1,-23.3,29.55,NE,42,0.0,4.0,62,0.00,,,0.00,Weather View 32 v70,2013-02-19 20:32:00,
2013-02-19 11:37:00,-11.0,-20.1,29.55,NE,35,1.0,7.0,63,0.00,,,0.00,Weather View 32 v70,2013-02-19 20:37:00,
2013-02-19 11:42:00,-9.5,-19.0,29.55,NE,46,2.0,7.0,62,0.00,,,0.00,Weather View 32 v70,2013-02-19 20:42:00,
2013-02-19 11:47:00,-8.6,-19.1,29.55,NNE,33,0.0,8.0,59,0.00,,,0.00,Weather View 32 v70,2013-02-19 20:47:00,
2013-02-19 11:52:00,-8.0,-19.5,29.55,NNE,31,2.0,8.0,56,0.00,,,0.00,Weather View 32 v70,2013-02-19 20:52:00,
2013-02-19 11:57:00,-7.5,-19.4,29.54,NNE,22,3.0,8.0,55,0.00,,,0.00,Weather View 32 v70,2013-02-19 20:57:00,
2013-02-19 12:02:00,-6.9,-19.2,29.54,NNE,29,2.0,8.0,54,0.00,,,0.00,Weather View 32 v70,2013-02-19 21:02:00,
2013-02-19 12:07:00,-6.5,-19.1,29.54,NNE,29,0.0,8.0,53,0.00,,,0.00,Weather View 32 v70,2013-02-19 21:07:00,
2013-02-19 12:12:00,-6.2,-18.9,29.53,NE,36,6.0,8.0,53,0.00,,,0.00,Weather View 32 v70,2013-02-19 21:12:00,
2013-02-19 12:17:00,-6.0,-19.0,29.53,NE,35,8.0,10.0,52,0.00,,,0.00,Weather View 32 v70,2013-02-19 21:17:00,
2013-02-19 12:22:00,-5.8,-18.9,29.53,NNE,32,2.0,10.0,52,0.00,,,0.00,Weather View 32 v70,2013-02-19 21:22:00,
2013-02-19 12:27:00,-5.4,-18.9,29.53,NNE,28,5.0,10.0,51,0.00,,,0.00,Weather View 32 v70,2013-02-19 21:27:00,
2013-02-19 12:32:00,-5.0,-18.5,29.52,NE,41,4.0,10.0,51,0.00,,,0.00,Weather View 32 v70,2013-02-19 21:32:00,
2013-02-19 12:37:00,-4.8,-18.3,29.52,NNE,31,4.0,10.0,51,0.00,,,0.00,Weather View 32 v70,2013-02-19 21:37:00,
2013-02-19 12:41:00,-4.5,-18.4,29.52,NNE,27,6.0,10.0,50,0.00,,,0.00,Weather View 32 v70,2013-02-19 21:41:00,
2013-02-19 12:46:00,-4.3,-18.2,29.52,ENE,57,4.0,10.0,50,0.00,,,0.00,Weather View 32 v70,2013-02-19 21:46:00,
2013-02-19 12:51:00,-4.1,-18.0,29.52,NE,53,5.0,10.0,50,0.00,,,0.00,Weather View 32 v70,2013-02-19 21:51:00,
2013-02-19 12:56:00,-3.8,-17.7,29.52,NE,44,2.0,11.0,50,0.00,,,0.00,Weather View 32 v70,2013-02-19 21:56:00,
2013-02-19 13:01:00,-3.6,-17.6,29.51,NNE,31,5.0,11.0,50,0.00,,,0.00,Weather View 32 v70,2013-02-19 22:01:00,
2013-02-19 13:06:00,-3.4,-17.8,29.51,NNE,31,3.0,11.0,49,0.00,,,0.00,Weather View 32 v70,2013-02-19 22:06:00,
2013-02-19 13:11:00,-3.2,-17.6,29.50,NNE,27,10.0,11.0,49,0.00,,,0.00,Weather View 32 v70,2013-02-19 22:11:00,
2013-02-19 13:16:00,-3.2,-17.6,29.50,NNE,30,8.0,12.0,49,0.00,,,0.00,Weather View 32 v70,2013-02-19 22:16:00,
2013-02-19 13:21:00,-3.1,-17.5,29.50,NNE,26,5.0,12.0,49,0.00,,,0.00,Weather View 32 v70,2013-02-19 22:21:00,
2013-02-19 13:26:00,-2.8,-17.2,29.50,NNE,33,4.0,12.0,49,0.00,,,0.00,Weather View 32 v70,2013-02-19 22:26:00,
2013-02-19 13:31:00,-2.7,-17.1,29.50,ENE,68,3.0,12.0,49,0.00,,,0.00,Weather View 32 v70,2013-02-19 22:31:00,
2013-02-19 13:36:00,-2.4,-16.8,29.50,NE,36,6.0,12.0,49,0.00,,,0.00,Weather View 32 v70,2013-02-19 22:36:00,
2013-02-19 13:41:00,-2.2,-16.7,29.49,ENE,60,5.0,12.0,49,0.00,,,0.00,Weather View 32 v70,2013-02-19 22:41:00,
2013-02-19 13:46:00,-1.9,-16.8,29.49,NNE,31,7.0,12.0,48,0.00,,,0.00,Weather View 32 v70,2013-02-19 22:46:00,
2013-02-19 13:51:00,-1.8,-16.7,29.48,NNE,24,3.0,12.0,48,0.00,,,0.00,Weather View 32 v70,2013-02-19 22:51:00,
2013-02-19 13:56:00,-1.7,-16.6,29.48,ENE,78,6.0,12.0,48,0.00,,,0.00,Weather View 32 v70,2013-02-19 22:56:00,
2013-02-19 14:01:00,-1.6,-16.5,29.48,NE,36,6.0,12.0,48,0.00,,,0.00,Weather View 32 v70,2013-02-19 23:01:00,
2013-02-19 14:06:00,-1.3,-16.2,29.48,NE,35,4.0,12.0,48,0.00,,,0.00,Weather View 32 v70,2013-02-19 23:06:00,
2013-02-19 14:11:00,-1.2,-16.1,29.47,NE,42,4.0,12.0,48,0.00,,,0.00,Weather View 32 v70,2013-02-19 23:11:00,
2013-02-19 14:16:00,-1.1,-16.0,29.47,NNE,31,4.0,10.0,48,0.00,,,0.00,Weather View 32 v70,2013-02-19 23:16:00,
2013-02-19 14:21:00,-1.1,-16.5,29.46,NE,34,2.0,10.0,47,0.00,,,0.00,Weather View 32 v70,2013-02-19 23:21:00,
2013-02-19 14:26:00,-0.9,-15.9,29.46,NE,37,6.0,10.0,48,0.00,,,0.00,Weather View 32 v70,2013-02-19 23:26:00,
2013-02-19 14:31:00,-0.7,-16.1,29.46,NNE,21,7.0,11.0,47,0.00,,,0.00,Weather View 32 v70,2013-02-19 23:31:00,
2013-02-19 14:36:00,-0.6,-15.6,29.45,NNE,33,6.0,11.0,48,0.00,,,0.00,Weather View 32 v70,2013-02-19 23:36:00,
2013-02-19 14:41:00,-0.4,-15.4,29.44,NNE,33,5.0,11.0,48,0.00,,,0.00,Weather View 32 v70,2013-02-19 23:41:00,
2013-02-19 14:46:00,-0.3,-15.7,29.44,NNE,30,3.0,11.0,47,0.00,,,0.00,Weather View 32 v70,2013-02-19 23:46:00,
2013-02-19 14:51:00,-0.2,-15.6,29.44,NE,40,5.0,11.0,47,0.00,,,0.00,Weather View 32 v70,2013-02-19 23:51:00,
2013-02-19 14:56:00,-0.1,-15.5,29.44,NE,56,3.0,11.0,47,0.00,,,0.00,Weather View 32 v70,2013-02-19 23:56:00,
2013-02-19 15:01:00,0.2,-15.2,29.43,NNE,26,6.0,11.0,47,0.00,,,0.00,Weather View 32 v70,2013-02-20 00:01:00,
2013-02-19 15:06:00,0.3,-15.6,29.43,NE,37,9.0,11.0,46,0.00,,,0.00,Weather View 32 v70,2013-02-20 00:06:00,
2013-02-19 15:11:00,0.3,-15.6,29.43,NNE,32,3.0,11.0,46,0.00,,,0.00,Weather View 32 v70,2013-02-20 00:11:00,
2013-02-19 15:16:00,0.3,-15.6,29.43,NNE,31,6.0,11.0,46,0.00,,,0.00,Weather View 32 v70,2013-02-20 00:16:00,
2013-02-19 15:21:00,0.2,-15.2,29.42,NNE,29,4.0,11.0,47,0.00,,,0.00,Weather View 32 v70,2013-02-20 00:21:00,
2013-02-19 15:26:00,0.3,-15.6,29.42,NNE,32,8.0,11.0,46,0.00,,,0.00,Weather View 32 v70,2013-02-20 00:26:00,
2013-02-19 15:31:00,0.4,-15.5,29.42,NE,40,4.0,12.0,46,0.00,,,0.00,Weather View 32 v70,2013-02-20 00:31:00,
2013-02-19 15:36:00,0.4,-15.5,29.42,NNE,31,4.0,12.0,46,0.00,,,0.00,Weather View 32 v70,2013-02-20 00:36:00,
2013-02-19 15:41:00,0.5,-15.4,29.41,NE,52,5.0,12.0,46,0.00,,,0.00,Weather View 32 v70,2013-02-20 00:41:00,
2013-02-19 15:46:00,0.5,-15.4,29.41,NNE,23,4.0,12.0,46,0.00,,,0.00,Weather View 32 v70,2013-02-20 00:46:00,
2013-02-19 15:51:00,0.4,-15.5,29.41,NNE,30,5.0,12.0,46,0.00,,,0.00,Weather View 32 v70,2013-02-20 00:51:00,
2013-02-19 15:56:00,0.4,-15.5,29.41,NNE,28,4.0,12.0,46,0.00,,,0.00,Weather View 32 v70,2013-02-20 00:56:00,
2013-02-19 16:01:00,0.4,-15.5,29.40,NNE,32,7.0,12.0,46,0.00,,,0.00,Weather View 32 v70,2013-02-20 01:01:00,
2013-02-19 16:06:00,0.4,-15.9,29.40,NE,50,5.0,12.0,45,0.00,,,0.00,Weather View 32 v70,2013-02-20 01:06:00,
2013-02-19 16:11:00,0.3,-15.6,29.40,NE,37,4.0,12.0,46,0.00,,,0.00,Weather View 32 v70,2013-02-20 01:11:00,
2013-02-19 16:16:00,0.2,-15.7,29.40,NNE,29,3.0,13.0,46,0.00,,,0.00,Weather View 32 v70,2013-02-20 01:16:00,
2013-02-19 16:21:00,0.1,-15.8,29.39,NNE,28,8.0,13.0,46,0.00,,,0.00,Weather View 32 v70,2013-02-20 01:21:00,
2013-02-19 16:26:00,0.0,-15.9,29.39,NNE,26,5.0,13.0,46,0.00,,,0.00,Weather View 32 v70,2013-02-20 01:26:00,
2013-02-19 16:31:00,-0.1,-15.9,29.39,ENE,67,1.0,13.0,46,0.00,,,0.00,Weather View 32 v70,2013-02-20 01:31:00,
2013-02-19 16:36:00,-0.2,-16.0,29.38,NNE,32,4.0,13.0,46,0.00,,,0.00,Weather View 32 v70,2013-02-20 01:36:00,
2013-02-19 16:41:00,-0.2,-16.5,29.38,NE,34,8.0,14.0,45,0.00,,,0.00,Weather View 32 v70,2013-02-20 01:41:00,
2013-02-19 16:46:00,-0.3,-16.6,29.38,NE,40,6.0,14.0,45,0.00,,,0.00,Weather View 32 v70,2013-02-20 01:46:00,
2013-02-19 16:51:00,-0.5,-16.7,29.37,NE,54,5.0,14.0,45,0.00,,,0.00,Weather View 32 v70,2013-02-20 01:51:00,
2013-02-19 16:56:00,-0.7,-16.5,29.37,NNE,33,7.0,14.0,46,0.00,,,0.00,Weather View 32 v70,2013-02-20 01:56:00,
2013-02-19 17:01:00,-0.8,-16.6,29.37,ENE,68,4.0,14.0,46,0.00,,,0.00,Weather View 32 v70,2013-02-20 02:01:00,
2013-02-19 17:06:00,-0.9,-16.7,29.37,ENE,63,5.0,14.0,46,0.00,,,0.00,Weather View 32 v70,2013-02-20 02:06:00,
2013-02-19 17:11:00,-1.0,-16.8,29.37,NNE,32,5.0,14.0,46,0.00,,,0.00,Weather View 32 v70,2013-02-20 02:11:00,
2013-02-19 17:16:00,-1.1,-16.9,29.37,NE,46,1.0,14.0,46,0.00,,,0.00,Weather View 32 v70,2013-02-20 02:16:00,
2013-02-19 17:21:00,-1.3,-17.1,29.36,NE,44,2.0,14.0,46,0.00,,,0.00,Weather View 32 v70,2013-02-20 02:21:00,
2013-02-19 17:26:00,-1.5,-16.8,29.36,NE,36,3.0,14.0,47,0.00,,,0.00,Weather View 32 v70,2013-02-20 02:26:00,
2013-02-19 17:31:00,-1.7,-17.0,29.35,NE,38,3.0,14.0,47,0.00,,,0.00,Weather View 32 v70,2013-02-20 02:31:00,
2013-02-19 17:36:00,-1.9,-17.6,29.35,NE,41,4.0,14.0,46,0.00,,,0.00,Weather View 32 v70,2013-02-20 02:36:00,
2013-02-19 17:41:00,-2.0,-17.7,29.35,NNE,27,3.0,12.0,46,0.00,,,0.00,Weather View 32 v70,2013-02-20 02:41:00,
2013-02-19 17:46:00,-2.2,-17.9,29.35,NNE,19,2.0,11.0,46,0.00,,,0.00,Weather View 32 v70,2013-02-20 02:46:00,
2013-02-19 17:51:00,-2.3,-17.6,29.35,NNE,32,6.0,11.0,47,0.00,,,0.00,Weather View 32 v70,2013-02-20 02:51:00,
2013-02-19 17:56:00,-2.3,-18.0,29.35,NE,47,2.0,11.0,46,0.00,,,0.00,Weather View 32 v70,2013-02-20 02:56:00,
2013-02-19 18:01:00,-2.5,-17.7,29.34,NNE,28,2.0,11.0,47,0.00,,,0.00,Weather View 32 v70,2013-02-20 03:01:00,
2013-02-19 18:06:00,-2.6,-17.8,29.35,NNE,25,4.0,11.0,47,0.00,,,0.00,Weather View 32 v70,2013-02-20 03:06:00,
2013-02-19 18:11:00,-2.8,-18.0,29.34,NE,35,11.0,11.0,47,0.00,,,0.00,Weather View 32 v70,2013-02-20 03:11:00,
2013-02-19 18:16:00,-2.9,-18.1,29.34,NE,44,6.0,11.0,47,0.00,,,0.00,Weather View 32 v70,2013-02-20 03:16:00,
2013-02-19 18:21:00,-3.0,-18.2,29.34,NNE,32,4.0,11.0,47,0.00,,,0.00,Weather View 32 v70,2013-02-20 03:21:00,
2013-02-19 18:26:00,-3.3,-18.5,29.34,NE,41,7.0,11.0,47,0.00,,,0.00,Weather View 32 v70,2013-02-20 03:26:00,
2013-02-19 18:31:00,-3.4,-18.6,29.34,NE,38,5.0,11.0,47,0.00,,,0.00,Weather View 32 v70,2013-02-20 03:31:00,
2013-02-19 18:36:00,-3.5,-18.7,29.34,NNE,29,4.0,13.0,47,0.00,,,0.00,Weather View 32 v70,2013-02-20 03:36:00,
2013-02-19 18:41:00,-3.5,-18.7,29.33,NNE,30,6.0,13.0,47,0.00,,,0.00,Weather View 32 v70,2013-02-20 03:41:00,
2013-02-19 18:46:00,-3.7,-19.3,29.33,NE,38,2.0,13.0,46,0.00,,,0.00,Weather View 32 v70,2013-02-20 03:46:00,
2013-02-19 18:51:00,-3.9,-19.5,29.33,North,8,5.0,13.0,46,0.00,,,0.00,Weather View 32 v70,2013-02-20 03:51:00,
2013-02-19 18:56:00,-4.2,-19.7,29.33,NNE,17,5.0,13.0,46,0.00,,,0.00,Weather View 32 v70,2013-02-20 03:56:00,
2013-02-19 19:01:00,-4.4,-19.9,29.33,NNE,32,4.0,13.0,46,0.00,,,0.00,Weather View 32 v70,2013-02-20 04:01:00,
2013-02-19 19:06:00,-4.6,-19.7,29.33,NE,41,2.0,13.0,47,0.00,,,0.00,Weather View 32 v70,2013-02-20 04:06:00,
2013-02-19 19:11:00,-4.7,-19.8,29.32,NNE,24,7.0,13.0,47,0.00,,,0.00,Weather View 32 v70,2013-02-20 04:11:00,
2013-02-19 19:16:00,-4.8,-19.9,29.32,ENE,58,4.0,13.0,47,0.00,,,0.00,Weather View 32 v70,2013-02-20 04:16:00,
2013-02-19 19:21:00,-4.8,-19.9,29.32,NE,37,3.0,13.0,47,0.00,,,0.00,Weather View 32 v70,2013-02-20 04:21:00,
2013-02-19 19:26:00,-4.8,-19.9,29.32,NE,50,1.0,13.0,47,0.00,,,0.00,Weather View 32 v70,2013-02-20 04:26:00,
2013-02-19 19:31:00,-4.9,-20.0,29.31,NE,36,6.0,13.0,47,0.00,,,0.00,Weather View 32 v70,2013-02-20 04:31:00,
2013-02-19 19:36:00,-4.9,-20.0,29.31,NE,40,2.0,12.0,47,0.00,,,0.00,Weather View 32 v70,2013-02-20 04:36:00,
2013-02-19 19:41:00,-4.9,-20.0,29.31,NNE,30,3.0,12.0,47,0.00,,,0.00,Weather View 32 v70,2013-02-20 04:41:00,
2013-02-19 19:46:00,-5.2,-20.2,29.31,NE,35,2.0,12.0,47,0.00,,,0.00,Weather View 32 v70,2013-02-20 04:46:00,
2013-02-19 19:51:00,-5.3,-20.3,29.31,NNE,27,5.0,12.0,47,0.00,,,0.00,Weather View 32 v70,2013-02-20 04:51:00,
2013-02-19 19:56:00,-5.4,-20.4,29.31,NNE,30,6.0,12.0,47,0.00,,,0.00,Weather View 32 v70,2013-02-20 04:56:00,
2013-02-19 20:00:00,-5.6,-21.0,29.30,NNE,15,2.0,9.0,46,0.00,,,0.00,Weather View 32 v70,2013-02-20 05:00:00,
2013-02-19 20:05:00,-5.8,-20.8,29.30,NNE,29,4.0,9.0,47,0.00,,,0.00,Weather View 32 v70,2013-02-20 05:05:00,
2013-02-19 20:10:00,-5.9,-20.9,29.30,NNE,27,3.0,9.0,47,0.00,,,0.00,Weather View 32 v70,2013-02-20 05:10:00,
2013-02-19 20:15:00,-6.0,-21.0,29.30,NNE,28,3.0,9.0,47,0.00,,,0.00,Weather View 32 v70,2013-02-20 05:15:00,
2013-02-19 20:20:00,-6.1,-21.1,29.29,NE,34,3.0,9.0,47,0.00,,,0.00,Weather View 32 v70,2013-02-20 05:20:00,
2013-02-19 20:25:00,-6.0,-21.0,29.29,NNE,32,4.0,9.0,47,0.00,,,0.00,Weather View 32 v70,2013-02-20 05:25:00,
2013-02-19 20:30:00,-5.9,-20.9,29.29,NE,42,3.0,11.0,47,0.00,,,0.00,Weather View 32 v70,2013-02-20 05:30:00,
2013-02-19 20:35:00,-5.9,-20.9,29.28,NE,34,5.0,11.0,47,0.00,,,0.00,Weather View 32 v70,2013-02-20 05:35:00,
2013-02-19 20:40:00,-6.0,-21.0,29.28,NNE,28,3.0,11.0,47,0.00,,,0.00,Weather View 32 v70,2013-02-20 05:40:00,
2013-02-19 20:45:00,-6.1,-21.1,29.28,NE,35,5.0,11.0,47,0.00,,,0.00,Weather View 32 v70,2013-02-20 05:45:00,
2013-02-19 20:50:00,-6.2,-21.2,29.28,NNE,32,3.0,11.0,47,0.00,,,0.00,Weather View 32 v70,2013-02-20 05:50:00,
2013-02-19 20:55:00,-6.4,-21.4,29.28,NNE,30,6.0,11.0,47,0.00,,,0.00,Weather View 32 v70,2013-02-20 05:55:00,
2013-02-19 21:00:00,-6.5,-21.4,29.27,NNE,22,2.0,11.0,47,0.00,,,0.00,Weather View 32 v70,2013-02-20 06:00:00,
2013-02-19 21:05:00,-6.6,-21.5,29.27,NE,40,3.0,11.0,47,0.00,,,0.00,Weather View 32 v70,2013-02-20 06:05:00,
2013-02-19 21:10:00,-6.7,-21.6,29.27,NE,38,3.0,11.0,47,0.00,,,0.00,Weather View 32 v70,2013-02-20 06:10:00,
2013-02-19 21:15:00,-6.8,-21.7,29.27,NE,54,4.0,11.0,47,0.00,,,0.00,Weather View 32 v70,2013-02-20 06:15:00,
2013-02-19 21:20:00,-6.8,-21.7,29.27,NE,47,4.0,11.0,47,0.00,,,0.00,Weather View 32 v70,2013-02-20 06:20:00,
2013-02-19 21:25:00,-6.8,-21.7,29.27,NE,47,2.0,11.0,47,0.00,,,0.00,Weather View 32 v70,2013-02-20 06:25:00,
2013-02-19 21:30:00,-6.9,-21.8,29.27,NE,46,3.0,8.0,47,0.00,,,0.00,Weather View 32 v70,2013-02-20 06:30:00,
2013-02-19 21:35:00,-7.1,-22.0,29.27,NE,46,1.0,8.0,47,0.00,,,0.00,Weather View 32 v70,2013-02-20 06:35:00,
2013-02-19 21:40:00,-7.4,-22.3,29.26,NE,46,0.0,8.0,47,0.00,,,0.00,Weather View 32 v70,2013-02-20 06:40:00,
2013-02-19 21:45:00,-7.6,-22.5,29.26,NE,34,1.0,8.0,47,0.00,,,0.00,Weather View 32 v70,2013-02-20 06:45:00,
2013-02-19 21:50:00,-7.7,-22.6,29.26,NE,35,0.0,8.0,47,0.00,,,0.00,Weather View 32 v70,2013-02-20 06:50:00,
2013-02-19 21:55:00,-8.0,-22.8,29.26,NE,35,0.0,8.0,47,0.00,,,0.00,Weather View 32 v70,2013-02-20 06:55:00,
2013-02-19 22:00:00,-8.2,-22.6,29.26,NE,35,0.0,7.0,48,0.00,,,0.00,Weather View 32 v70,2013-02-20 07:00:00,
2013-02-19 22:05:00,-8.4,-22.8,29.26,NE,35,0.0,7.0,48,0.00,,,0.00,Weather View 32 v70,2013-02-20 07:05:00,
2013-02-19 22:10:00,-8.5,-22.9,29.25,NE,35,0.0,7.0,48,0.00,,,0.00,Weather View 32 v70,2013-02-20 07:10:00,
2013-02-19 22:15:00,-8.5,-22.9,29.26,NE,35,2.0,7.0,48,0.00,,,0.00,Weather View 32 v70,2013-02-20 07:15:00,
2013-02-19 22:20:00,-8.5,-22.9,29.25,NE,35,2.0,7.0,48,0.00,,,0.00,Weather View 32 v70,2013-02-20 07:20:00,
2013-02-19 22:25:00,-8.4,-22.4,29.25,NE,35,2.0,7.0,49,0.00,,,0.00,Weather View 32 v70,2013-02-20 07:25:00,
2013-02-19 22:30:00,-8.3,-22.7,29.25,NE,35,0.0,7.0,48,0.00,,,0.00,Weather View 32 v70,2013-02-20 07:30:00,
2013-02-19 22:35:00,-8.4,-22.4,29.25,NE,35,1.0,7.0,49,0.00,,,0.00,Weather View 32 v70,2013-02-20 07:35:00,
2013-02-19 22:40:00,-8.7,-22.7,29.25,NE,35,0.0,7.0,49,0.00,,,0.00,Weather View 32 v70,2013-02-20 07:40:00,
2013-02-19 22:45:00,-8.9,-22.9,29.25,NE,35,0.0,5.0,49,0.00,,,0.00,Weather View 32 v70,2013-02-20 07:45:00,
2013-02-19 22:50:00,-9.1,-23.1,29.25,NE,35,1.0,4.0,49,0.00,,,0.00,Weather View 32 v70,2013-02-20 07:50:00,
2013-02-19 22:55:00,-9.2,-23.2,29.24,North,10,0.0,4.0,49,0.00,,,0.00,Weather View 32 v70,2013-02-20 07:55:00,
2013-02-19 23:00:00,-9.3,-23.2,29.24,North,10,0.0,4.0,49,0.00,,,0.00,Weather View 32 v70,2013-02-20 08:00:00,
2013-02-19 23:05:00,-9.3,-22.9,29.24,North,9,3.0,4.0,50,0.00,,,0.00,Weather View 32 v70,2013-02-20 08:05:00,
2013-02-19 23:10:00,-9.1,-22.7,29.24,North,0,0.0,5.0,50,0.00,,,0.00,Weather View 32 v70,2013-02-20 08:10:00,
2013-02-19 23:15:00,-8.9,-22.9,29.24,North,6,1.0,5.0,49,0.00,,,0.00,Weather View 32 v70,2013-02-20 08:15:00,
2013-02-19 23:20:00,-9.0,-22.6,29.23,North,6,0.0,5.0,50,0.00,,,0.00,Weather View 32 v70,2013-02-20 08:20:00,
2013-02-19 23:25:00,-9.1,-23.1,29.24,North,6,0.0,5.0,49,0.00,,,0.00,Weather View 32 v70,2013-02-20 08:25:00,
2013-02-19 23:30:00,-9.2,-22.8,29.23,North,6,0.0,5.0,50,0.00,,,0.00,Weather View 32 v70,2013-02-20 08:30:00,
2013-02-19 23:35:00,-9.2,-23.2,29.23,North,6,0.0,5.0,49,0.00,,,0.00,Weather View 32 v70,2013-02-20 08:35:00,
2013-02-19 23:40:00,-9.4,-23.3,29.23,North,6,0.0,5.0,49,0.00,,,0.00,Weather View 32 v70,2013-02-20 08:40:00,
2013-02-19 23:45:00,-9.5,-23.4,29.23,North,6,1.0,5.0,49,0.00,,,0.00,Weather View 32 v70,2013-02-20 08:45:00,
2013-02-19 23:50:00,-9.5,-23.1,29.23,North,6,0.0,5.0,50,0.00,,,0.00,Weather View 32 v70,2013-02-20 08:50:00,
2013-02-19 23:55:00,-9.4,-23.0,29.22,North,6,0.0,5.0,50,0.00,,,0.00,Weather View 32 v70,2013-02-20 08:55:00,